Time;durP1;ratioP1;P1;durP2;ratioP2;P2;SDS_P1;SDS_P2;PMS_P1;PMS_P2;Temp;Humidity;BMP_temperature;BMP_pressure;BME280_temperature;BME280_humidity;BME280_pressure;Samples;Min_cycle;Max_cycle;Signal;HPM_P1;HPM_P2
2021/05/22 00:03:58;;;;;;;2.10;1.20;;;13.40;80.10;;;;;;10395047;28;20644;-81
2021/05/22 00:09:01;;;;;;;1.20;1.20;;;13.40;79.90;;;;;;10400105;28;20230;-80
2021/05/22 00:14:03;;;;;;;1.30;1.20;;;13.40;79.80;;;;;;10401886;28;20703;-81
2021/05/22 00:19:05;;;;;;;2.40;1.30;;;13.30;79.60;;;;;;10420884;28;20221;-80
2021/05/22 00:24:08;;;;;;;1.10;1.00;;;13.30;79.60;;;;;;10419256;28;20206;-80
2021/05/22 00:29:10;;;;;;;3.43;1.40;;;13.30;79.20;;;;;;10401558;28;20218;-82
2021/05/22 00:34:11;;;;;;;1.30;1.20;;;13.20;78.50;;;;;;10402264;28;20267;-80
2021/05/22 00:39:14;;;;;;;4.07;1.20;;;13.20;78.60;;;;;;10387161;28;20705;-82
2021/05/22 00:44:16;;;;;;;1.20;1.10;;;13.10;77.80;;;;;;10403612;28;20223;-81
2021/05/22 00:49:17;;;;;;;1.33;1.23;;;13.10;77.90;;;;;;10388209;28;20234;-80
2021/05/22 00:54:20;;;;;;;0.90;0.90;;;13.10;77.70;;;;;;10381646;28;20228;-79
2021/05/22 00:59:22;;;;;;;1.30;1.20;;;12.90;77.50;;;;;;10400015;28;20308;-80
2021/05/22 01:04:24;;;;;;;1.30;1.20;;;12.80;78.60;;;;;;10413682;28;20237;-81
2021/05/22 01:09:27;;;;;;;1.53;1.20;;;12.80;78.20;;;;;;10389312;28;20230;-79
2021/05/22 01:14:33;;;;;;;1.10;1.10;;;12.80;78.80;;;;;;10389862;28;20205;-81
2021/05/22 01:19:45;;;;;;;1.67;1.40;;;12.80;79.40;;;;;;10374683;28;20237;-80
2021/05/22 01:24:52;;;;;;;1.00;1.00;;;12.80;79.00;;;;;;10406194;28;20213;-79
2021/05/22 01:29:55;;;;;;;1.93;1.10;;;12.80;79.30;;;;;;10402588;28;20348;-82
2021/05/22 01:34:57;;;;;;;1.23;1.13;;;12.80;80.10;;;;;;10377006;28;20217;-79
2021/05/22 01:39:59;;;;;;;1.90;1.40;;;12.70;80.10;;;;;;10414369;28;20236;-83
2021/05/22 01:45:03;;;;;;;1.30;1.20;;;12.70;80.30;;;;;;10383439;28;20202;-78
2021/05/22 01:50:06;;;;;;;1.50;1.40;;;12.70;80.50;;;;;;10384810;28;20237;-82
2021/05/22 01:55:10;;;;;;;1.40;1.23;;;12.80;80.10;;;;;;10385662;28;20209;-82
2021/05/22 02:00:14;;;;;;;1.30;1.20;;;12.90;82.20;;;;;;10418181;28;20701;-83
2021/05/22 02:05:19;;;;;;;1.00;1.00;;;13.00;80.40;;;;;;10401516;28;20260;-82
2021/05/22 02:10:21;;;;;;;3.63;1.40;;;13.00;81.30;;;;;;10383524;28;20234;-82
2021/05/22 02:15:25;;;;;;;2.37;1.27;;;13.20;82.50;;;;;;10400684;28;20210;-83
2021/05/22 02:20:27;;;;;;;1.37;1.30;;;13.30;82.50;;;;;;10384462;28;20257;-81
2021/05/22 02:25:29;;;;;;;1.80;1.20;;;13.40;81.60;;;;;;10400352;28;20205;-83
2021/05/22 02:30:34;;;;;;;1.40;1.40;;;13.40;82.20;;;;;;10385925;28;20785;-83
2021/05/22 02:35:40;;;;;;;1.93;1.13;;;13.40;85.60;;;;;;10383304;28;20206;-82
2021/05/22 02:40:42;;;;;;;2.40;1.40;;;13.50;87.60;;;;;;10400644;28;20232;-82
2021/05/22 02:45:46;;;;;;;1.93;1.40;;;13.30;89.00;;;;;;10384762;28;20220;-82
2021/05/22 02:50:49;;;;;;;1.30;1.20;;;12.90;90.60;;;;;;10418743;28;20240;-82
2021/05/22 02:55:51;;;;;;;1.30;1.20;;;12.50;92.40;;;;;;10382235;28;20213;-82
2021/05/22 03:00:54;;;;;;;1.60;1.50;;;12.30;93.00;;;;;;10417403;28;20230;-83
2021/05/22 03:05:56;;;;;;;1.10;1.10;;;12.00;92.90;;;;;;10393402;28;20639;-82
2021/05/22 03:10:58;;;;;;;1.40;1.30;;;11.80;93.40;;;;;;10399750;28;20218;-83
2021/05/22 03:16:01;;;;;;;1.50;1.40;;;11.60;94.30;;;;;;10398831;28;20206;-82
2021/05/22 03:21:03;;;;;;;1.87;1.40;;;11.50;95.20;;;;;;10375928;28;20679;-81
2021/05/22 03:26:05;;;;;;;2.13;1.57;;;11.40;94.90;;;;;;10410378;28;20206;-82
2021/05/22 03:31:08;;;;;;;4.47;1.90;;;11.40;95.70;;;;;;10401076;28;20214;-83
2021/05/22 03:36:09;;;;;;;2.87;1.80;;;11.40;95.60;;;;;;10391808;28;20233;-81
2021/05/22 03:41:11;;;;;;;1.87;1.77;;;11.30;95.30;;;;;;10407810;28;20651;-83
2021/05/22 03:46:13;;;;;;;1.90;1.30;;;11.40;96.00;;;;;;10390983;28;20236;-83
2021/05/22 03:51:15;;;;;;;2.00;1.50;;;11.40;95.30;;;;;;10391808;28;20249;-83
2021/05/22 03:56:17;;;;;;;2.37;1.80;;;11.50;95.50;;;;;;10412746;28;20201;-83
2021/05/22 04:01:19;;;;;;;1.40;1.30;;;11.60;95.30;;;;;;10448187;23;20252;-80
2021/05/22 04:06:21;;;;;;;2.30;1.80;;;11.70;95.10;;;;;;10445039;28;20676;-80
2021/05/22 04:11:23;;;;;;;1.50;1.40;;;11.80;94.30;;;;;;10425976;28;20226;-80
2021/05/22 04:16:25;;;;;;;3.10;1.50;;;11.90;93.70;;;;;;10396995;28;20217;-80
2021/05/22 04:21:27;;;;;;;1.20;1.10;;;11.90;93.90;;;;;;10412653;28;20694;-80
2021/05/22 04:26:29;;;;;;;3.70;1.67;;;12.00;92.60;;;;;;10402831;28;20572;-80
2021/05/22 04:31:31;;;;;;;2.20;1.50;;;12.10;93.60;;;;;;10412798;28;20237;-80
2021/05/22 04:36:33;;;;;;;2.10;1.40;;;12.10;93.90;;;;;;10378843;28;20628;-80
2021/05/22 04:41:34;;;;;;;2.07;1.27;;;12.10;93.40;;;;;;10402244;28;20782;-79
2021/05/22 04:46:37;;;;;;;1.73;1.40;;;12.10;91.90;;;;;;10419342;28;20700;-80
2021/05/22 04:51:39;;;;;;;2.13;1.30;;;12.00;92.30;;;;;;10390104;28;20233;-80
2021/05/22 04:56:41;;;;;;;1.23;1.10;;;11.90;92.90;;;;;;10393896;28;20305;-80
2021/05/22 05:01:43;;;;;;;1.53;1.43;;;11.90;93.10;;;;;;10419593;28;20598;-80
2021/05/22 05:06:45;;;;;;;5.00;1.70;;;12.00;93.30;;;;;;10402467;28;20194;-79
2021/05/22 05:11:46;;;;;;;1.53;1.20;;;12.10;94.00;;;;;;10419879;28;20218;-80
2021/05/22 05:16:49;;;;;;;1.87;1.63;;;12.20;93.40;;;;;;10403256;28;20238;-80
2021/05/22 05:21:51;;;;;;;2.03;1.40;;;12.30;93.60;;;;;;10401974;28;20713;-80
2021/05/22 05:26:53;;;;;;;1.50;1.40;;;12.30;93.10;;;;;;10404198;28;20291;-80
2021/05/22 05:31:55;;;;;;;2.43;1.33;;;12.30;93.40;;;;;;10425048;28;20259;-80
2021/05/22 05:36:57;;;;;;;3.40;1.30;;;12.40;94.20;;;;;;10413186;28;20194;-80
2021/05/22 05:41:58;;;;;;;1.63;1.37;;;12.60;94.40;;;;;;10388044;28;20226;-80
2021/05/22 05:47:01;;;;;;;1.50;1.20;;;12.80;94.00;;;;;;10401238;28;20223;-80
2021/05/22 05:52:03;;;;;;;2.33;1.40;;;13.00;92.80;;;;;;10418379;28;20198;-80
2021/05/22 05:57:05;;;;;;;1.67;1.57;;;13.10;92.60;;;;;;10397932;28;20225;-80
2021/05/22 06:02:07;;;;;;;1.77;1.50;;;13.30;92.50;;;;;;10416980;28;20601;-80
2021/05/22 06:07:09;;;;;;;2.10;1.30;;;13.40;92.30;;;;;;10399099;28;20267;-80
2021/05/22 06:12:11;;;;;;;1.40;1.30;;;13.40;92.30;;;;;;10399138;28;20198;-80
2021/05/22 06:17:13;;;;;;;2.70;1.50;;;13.30;92.90;;;;;;10397282;28;20245;-80
2021/05/22 06:22:15;;;;;;;1.50;1.40;;;13.40;91.80;;;;;;10395956;28;20206;-80
2021/05/22 06:27:16;;;;;;;1.47;1.37;;;13.40;91.20;;;;;;10395746;28;20347;-80
2021/05/22 06:32:19;;;;;;;3.30;1.77;;;13.60;91.00;;;;;;10394917;28;20212;-79
2021/05/22 06:37:23;;;;;;;4.63;1.80;;;13.80;91.50;;;;;;10397518;28;20208;-80
2021/05/22 06:42:25;;;;;;;3.50;1.50;;;14.10;90.70;;;;;;10399273;28;20264;-80
2021/05/22 06:47:28;;;;;;;2.07;1.87;;;14.40;90.60;;;;;;10390650;28;20313;-80
2021/05/22 06:52:29;;;;;;;1.50;1.30;;;14.60;89.50;;;;;;10415885;28;20482;-80
2021/05/22 06:57:31;;;;;;;2.63;1.80;;;14.70;86.90;;;;;;10405065;28;20268;-80
2021/05/22 07:02:34;;;;;;;2.70;1.70;;;15.20;88.30;;;;;;10433895;28;20213;-80
2021/05/22 07:07:36;;;;;;;1.50;1.40;;;15.50;85.70;;;;;;10397822;28;20705;-80
2021/05/22 07:12:39;;;;;;;1.93;1.47;;;15.70;80.50;;;;;;10381901;28;20205;-80
2021/05/22 07:17:41;;;;;;;2.93;1.40;;;15.90;80.90;;;;;;10416704;28;20221;-80
2021/05/22 07:22:43;;;;;;;3.57;1.83;;;16.00;78.00;;;;;;10407716;28;20295;-80
2021/05/22 07:27:45;;;;;;;3.10;1.40;;;16.10;76.00;;;;;;10412917;28;20271;-80
2021/05/22 07:32:47;;;;;;;3.70;2.10;;;16.00;77.10;;;;;;10398496;28;20214;-80
2021/05/22 07:37:49;;;;;;;5.63;1.77;;;16.00;76.90;;;;;;10416160;28;20760;-80
2021/05/22 07:42:51;;;;;;;6.33;2.00;;;16.00;74.70;;;;;;10382377;28;20256;-80
2021/05/22 07:47:53;;;;;;;2.17;1.57;;;16.20;75.30;;;;;;10417192;28;20210;-80
2021/05/22 07:52:55;;;;;;;1.80;1.70;;;16.30;72.50;;;;;;10380336;28;20676;-80
2021/05/22 07:57:56;;;;;;;2.20;1.77;;;16.50;74.00;;;;;;10386368;28;20229;-80
2021/05/22 08:02:59;;;;;;;5.03;1.60;;;16.70;75.70;;;;;;10377272;28;20300;-80
2021/05/22 08:08:00;;;;;;;2.60;1.40;;;17.20;69.90;;;;;;10389081;28;20222;-80
2021/05/22 08:13:03;;;;;;;3.00;1.50;;;17.60;66.70;;;;;;10424128;28;20209;-80
2021/05/22 08:18:06;;;;;;;1.77;1.67;;;17.60;63.80;;;;;;10405707;28;20233;-80
2021/05/22 08:23:07;;;;;;;2.03;1.80;;;17.80;64.50;;;;;;10423062;28;20221;-81
2021/05/22 08:28:09;;;;;;;3.03;1.40;;;18.40;62.70;;;;;;10404462;28;20249;-80
2021/05/22 08:33:11;;;;;;;1.70;1.47;;;19.10;62.50;;;;;;10404685;28;20230;-80
2021/05/22 08:38:13;;;;;;;1.77;1.20;;;19.80;57.50;;;;;;10400949;28;20300;-80
2021/05/22 08:43:14;;;;;;;1.50;1.00;;;20.20;58.00;;;;;;10420895;28;20388;-80
2021/05/22 08:48:17;;;;;;;3.33;1.30;;;20.40;55.80;;;;;;10402029;28;20249;-80
2021/05/22 08:53:21;;;;;;;3.10;1.60;;;20.60;55.20;;;;;;10419787;28;20205;-80
2021/05/22 08:58:23;;;;;;;3.83;1.37;;;20.80;55.20;;;;;;10401620;28;20245;-80
2021/05/22 09:03:26;;;;;;;2.00;1.33;;;21.10;53.80;;;;;;10419750;28;20467;-80
2021/05/22 09:08:32;;;;;;;1.87;1.33;;;20.90;52.90;;;;;;10430371;28;20218;-80
2021/05/22 09:13:35;;;;;;;1.73;1.63;;;20.90;52.30;;;;;;10397450;28;20545;-80
2021/05/22 09:18:39;;;;;;;1.20;1.10;;;21.10;51.60;;;;;;10413455;28;20245;-81
2021/05/22 09:23:43;;;;;;;3.00;1.60;;;21.30;51.20;;;;;;10402890;28;20235;-80
2021/05/22 09:28:46;;;;;;;2.50;1.77;;;21.70;50.30;;;;;;10413228;28;20214;-81
2021/05/22 09:33:49;;;;;;;2.30;1.80;;;22.00;48.50;;;;;;10397274;28;20216;-80
2021/05/22 09:38:53;;;;;;;1.93;1.30;;;22.40;48.60;;;;;;10402156;28;20230;-81
2021/05/22 09:44:06;;;;;;;1.87;1.13;;;22.80;47.30;;;;;;10419835;28;20216;-80
2021/05/22 09:49:08;;;;;;;1.33;1.23;;;23.30;46.30;;;;;;10407879;28;20222;-80
2021/05/22 09:54:10;;;;;;;3.50;1.97;;;23.50;45.80;;;;;;10420951;28;20209;-81
2021/05/22 09:59:14;;;;;;;1.80;1.33;;;24.30;44.40;;;;;;10433260;23;20237;-80
2021/05/22 10:04:18;;;;;;;5.43;1.40;;;25.60;41.80;;;;;;10439218;28;20220;-79
2021/05/22 10:09:21;;;;;;;3.40;1.40;;;26.40;40.70;;;;;;10422799;28;20309;-79
2021/05/22 10:14:22;;;;;;;1.20;1.10;;;27.20;40.70;;;;;;10417614;28;20204;-79
2021/05/22 10:19:26;;;;;;;1.17;0.90;;;28.30;39.20;;;;;;10399219;28;20316;-79
2021/05/22 10:24:28;;;;;;;3.10;1.47;;;27.10;37.90;;;;;;10415359;28;20288;-79
2021/05/22 10:29:32;;;;;;;1.77;1.67;;;25.30;38.90;;;;;;10392593;28;20218;-79
2021/05/22 10:34:37;;;;;;;3.30;1.27;;;23.80;40.00;;;;;;10396444;28;20202;-79
2021/05/22 10:39:41;;;;;;;2.70;1.57;;;22.60;41.90;;;;;;10397878;28;20693;-79
2021/05/22 10:44:43;;;;;;;1.73;1.10;;;21.90;41.30;;;;;;10381270;28;20213;-78
2021/05/22 10:49:54;;;;;;;1.00;0.90;;;21.10;42.50;;;;;;10380388;28;20229;-78
2021/05/22 10:55:03;;;;;;;1.47;1.37;;;20.60;42.30;;;;;;10413346;28;20229;-78
2021/05/22 11:06:13;;;;;;;1.80;1.70;;;20.10;42.40;;;;;;10041702;26;20291;-80
2021/05/22 11:16:45;;;;;;;3.27;1.57;;;19.70;43.10;;;;;;10576177;27;20517;-79
2021/05/22 11:22:14;;;;;;;1.20;1.10;;;19.40;40.60;;;;;;10540892;28;20223;-79
2021/05/22 11:27:16;;;;;;;1.20;1.10;;;19.20;41.50;;;;;;10540733;28;20191;-79
2021/05/22 11:32:47;;;;;;;1.90;1.80;;;19.00;41.30;;;;;;10536399;28;20236;-79
2021/05/22 11:37:49;;;;;;;2.17;1.60;;;18.90;41.70;;;;;;10559168;28;20251;-79
2021/05/22 11:42:54;;;;;;;1.40;1.30;;;19.00;43.10;;;;;;10532944;28;20202;-79
2021/05/22 11:47:57;;;;;;;1.13;0.80;;;19.30;42.50;;;;;;10530457;28;20699;-79
2021/05/22 11:53:13;;;;;;;2.43;1.57;;;19.50;39.60;;;;;;10528217;28;20345;-79
2021/05/22 11:58:14;;;;;;;1.00;0.90;;;19.40;41.20;;;;;;10531073;28;20261;-79
2021/05/22 12:03:24;;;;;;;1.20;1.10;;;19.30;40.00;;;;;;10533761;28;20667;-79
2021/05/22 12:08:28;;;;;;;1.23;1.10;;;19.30;41.40;;;;;;10533156;28;20219;-79
2021/05/22 12:13:29;;;;;;;1.87;1.17;;;19.40;40.90;;;;;;10526496;28;20247;-79
2021/05/22 12:18:33;;;;;;;3.30;1.40;;;19.30;40.20;;;;;;10529063;28;20301;-79
2021/05/22 12:23:39;;;;;;;1.00;0.90;;;19.30;41.80;;;;;;10532318;28;20196;-79
2021/05/22 12:28:41;;;;;;;2.07;1.00;;;19.40;42.40;;;;;;10488248;28;20220;-79
2021/05/22 12:33:56;;;;;;;1.40;1.30;;;19.50;43.50;;;;;;10499960;28;20234;-79
2021/05/22 12:38:57;;;;;;;2.07;1.70;;;19.40;43.90;;;;;;10500392;28;20212;-79
2021/05/22 12:43:59;;;;;;;1.83;1.27;;;19.50;42.80;;;;;;10500811;28;20251;-79
2021/05/22 12:49:10;;;;;;;1.33;1.20;;;19.50;41.90;;;;;;10501717;28;20307;-79
2021/05/22 12:54:28;;;;;;;1.60;1.50;;;19.70;41.40;;;;;;10503564;28;20753;-79
2021/05/22 12:59:31;;;;;;;2.63;1.50;;;19.80;41.90;;;;;;10504305;28;20220;-79
2021/05/22 13:04:33;;;;;;;1.53;1.03;;;19.80;44.60;;;;;;10504464;28;20220;-79
2021/05/22 13:09:49;;;;;;;2.07;1.50;;;19.80;44.30;;;;;;10503112;28;20278;-79
2021/05/22 13:14:52;;;;;;;2.23;1.40;;;19.80;43.80;;;;;;10502690;28;20224;-79
2021/05/22 13:19:55;;;;;;;4.80;1.33;;;19.60;44.40;;;;;;10501191;28;20665;-79
2021/05/22 13:25:07;;;;;;;4.43;1.50;;;19.40;44.80;;;;;;10485137;28;20208;-79
2021/05/22 13:30:09;;;;;;;1.53;1.00;;;19.20;47.00;;;;;;10502204;28;20232;-79
2021/05/22 13:35:13;;;;;;;1.47;1.17;;;19.00;47.40;;;;;;10501803;28;20673;-79
2021/05/22 13:40:15;;;;;;;1.20;1.10;;;18.90;47.30;;;;;;10483964;28;20250;-79
2021/05/22 13:45:17;;;;;;;1.23;1.13;;;18.80;45.80;;;;;;10502648;28;20239;-79
2021/05/22 13:50:20;;;;;;;1.67;1.50;;;18.80;45.90;;;;;;10502243;28;20700;-79
2021/05/22 13:55:22;;;;;;;0.90;0.90;;;18.80;45.70;;;;;;10504933;28;20212;-79
2021/05/22 14:00:24;;;;;;;2.00;1.40;;;18.70;45.40;;;;;;10499463;28;20859;-79
2021/05/22 14:05:26;;;;;;;2.40;1.60;;;18.80;45.30;;;;;;10499088;28;20660;-79
2021/05/22 14:10:30;;;;;;;1.43;1.20;;;18.90;46.10;;;;;;10501705;28;20711;-79
2021/05/22 14:15:32;;;;;;;3.30;1.33;;;19.00;47.20;;;;;;10513727;28;20263;-79
2021/05/22 14:20:34;;;;;;;1.73;1.10;;;18.90;48.20;;;;;;10498786;28;20220;-79
2021/05/22 14:25:36;;;;;;;1.30;1.20;;;18.90;48.20;;;;;;10499051;28;20201;-79
2021/05/22 14:30:37;;;;;;;1.20;1.10;;;19.00;46.80;;;;;;10501059;28;20488;-79
2021/05/22 14:35:40;;;;;;;1.43;1.33;;;19.00;44.80;;;;;;10484279;28;20251;-79
2021/05/22 14:40:42;;;;;;;1.20;1.10;;;19.10;46.00;;;;;;10505249;28;20224;-79
2021/05/22 14:45:44;;;;;;;3.30;1.50;;;19.30;45.30;;;;;;10509580;28;20276;-79
2021/05/22 14:50:46;;;;;;;3.23;1.40;;;19.30;48.00;;;;;;10502253;28;20732;-79
2021/05/22 14:55:48;;;;;;;1.83;1.13;;;19.40;46.90;;;;;;10499976;28;20224;-79
2021/05/22 15:00:50;;;;;;;1.30;1.20;;;19.50;47.10;;;;;;10496323;28;20303;-79
2021/05/22 15:05:58;;;;;;;1.97;1.60;;;19.50;47.00;;;;;;10493601;28;20246;-79
2021/05/22 15:11:00;;;;;;;1.50;1.40;;;19.50;47.40;;;;;;10495983;28;20793;-79
2021/05/22 15:16:02;;;;;;;1.27;1.07;;;19.40;48.50;;;;;;10496703;28;20318;-79
2021/05/22 15:21:05;;;;;;;1.80;1.70;;;19.30;48.00;;;;;;10499415;28;20221;-79
2021/05/22 15:26:08;;;;;;;3.13;1.30;;;19.20;47.20;;;;;;10499454;28;20197;-79
2021/05/22 15:31:13;;;;;;;1.83;1.13;;;19.00;47.50;;;;;;10479728;28;20243;-79
2021/05/22 15:36:15;;;;;;;2.47;1.10;;;19.00;47.80;;;;;;10499664;28;20220;-79
2021/05/22 15:41:17;;;;;;;1.00;1.00;;;19.00;48.10;;;;;;10498324;28;20294;-79
2021/05/22 15:46:21;;;;;;;2.10;1.07;;;19.00;47.60;;;;;;10500692;28;20672;-79
2021/05/22 16:02:20;;;;;;;1.63;0.83;;;18.80;43.60;;;;;;10510332;22;20573;-83
2021/05/22 16:07:22;;;;;;;1.40;0.90;;;18.70;43.60;;;;;;10453271;28;20263;-83
2021/05/22 16:12:24;;;;;;;1.33;1.00;;;18.50;43.70;;;;;;10451930;28;20217;-80
2021/05/22 16:17:26;;;;;;;3.83;1.53;;;18.40;44.60;;;;;;10435914;28;20209;-80
2021/05/22 16:22:28;;;;;;;1.60;0.97;;;18.30;47.10;;;;;;10460431;28;20231;-80
2021/05/22 16:27:30;;;;;;;1.03;0.80;;;18.30;44.90;;;;;;10449923;28;20205;-80
2021/05/22 16:32:32;;;;;;;1.47;0.90;;;18.30;45.20;;;;;;10449387;28;20221;-79
2021/05/22 16:37:34;;;;;;;3.23;2.10;;;18.30;44.90;;;;;;10448339;28;20201;-80
2021/05/22 16:42:37;;;;;;;1.73;1.00;;;18.30;44.50;;;;;;10446040;28;20605;-79
2021/05/22 16:47:39;;;;;;;1.20;1.10;;;18.20;45.80;;;;;;10445152;28;20212;-79
2021/05/22 16:52:40;;;;;;;2.10;1.30;;;18.20;44.40;;;;;;10445472;28;20221;-80
2021/05/22 16:57:43;;;;;;;1.60;1.30;;;18.10;44.30;;;;;;10445497;28;20205;-80
2021/05/22 17:02:47;;;;;;;2.40;1.20;;;17.90;45.40;;;;;;10429537;28;20220;-80
2021/05/22 17:07:49;;;;;;;1.27;1.17;;;17.90;44.90;;;;;;10422483;28;20198;-80
2021/05/22 17:12:52;;;;;;;1.77;1.67;;;17.90;46.60;;;;;;10418195;28;20272;-79
2021/05/22 17:17:54;;;;;;;1.20;1.10;;;18.00;46.30;;;;;;10420651;28;20204;-79
2021/05/22 17:22:56;;;;;;;7.23;5.70;;;18.00;46.70;;;;;;10420360;28;20254;-80
2021/05/22 17:27:58;;;;;;;4.40;1.73;;;18.00;47.20;;;;;;10420848;28;20225;-80
2021/05/22 17:33:00;;;;;;;1.73;1.10;;;18.00;46.70;;;;;;10421451;28;20217;-80
2021/05/22 17:38:02;;;;;;;1.13;1.03;;;18.00;46.70;;;;;;10420053;28;20202;-80
2021/05/22 17:43:04;;;;;;;1.93;1.83;;;17.90;47.60;;;;;;10421380;28;20209;-80
2021/05/22 17:48:07;;;;;;;1.33;1.23;;;17.90;48.20;;;;;;10420352;28;20301;-80
2021/05/22 17:53:08;;;;;;;1.40;1.30;;;17.90;48.10;;;;;;10422551;28;20240;-80
2021/05/22 17:58:13;;;;;;;1.57;1.27;;;17.90;48.00;;;;;;10414825;28;20225;-80
2021/05/22 18:03:15;;;;;;;1.57;1.20;;;17.90;48.70;;;;;;10420541;28;20281;-80
2021/05/22 18:08:16;;;;;;;1.73;0.90;;;17.80;48.50;;;;;;10414350;28;20592;-80
2021/05/22 18:13:31;;;;;;;1.20;1.10;;;17.60;49.90;;;;;;10390352;28;20227;-80
2021/05/22 18:18:33;;;;;;;1.77;1.23;;;17.50;50.60;;;;;;10428265;28;20233;-80
2021/05/22 18:23:35;;;;;;;1.77;1.23;;;17.40;53.00;;;;;;10417031;28;20669;-79
2021/05/22 18:28:37;;;;;;;1.53;1.27;;;17.40;52.40;;;;;;10416559;28;20299;-80
2021/05/22 18:33:39;;;;;;;1.43;1.23;;;17.30;51.30;;;;;;10398319;28;20572;-80
2021/05/22 18:38:41;;;;;;;1.77;1.67;;;17.30;52.90;;;;;;10414961;28;20283;-80
2021/05/22 18:43:44;;;;;;;2.13;2.00;;;17.20;53.60;;;;;;10399377;28;20225;-80
2021/05/22 18:48:46;;;;;;;1.83;1.60;;;17.10;54.70;;;;;;10414974;28;20265;-81
2021/05/22 18:53:48;;;;;;;2.20;1.20;;;17.10;56.10;;;;;;10403869;28;20225;-80
2021/05/22 18:58:50;;;;;;;2.10;1.40;;;17.00;53.60;;;;;;10397244;28;20241;-80
2021/05/22 19:03:52;;;;;;;1.80;1.60;;;16.90;54.50;;;;;;10397286;28;20204;-81
2021/05/22 19:08:53;;;;;;;1.67;1.57;;;16.90;53.90;;;;;;10416002;28;20241;-79
2021/05/22 19:13:57;;;;;;;2.03;1.83;;;16.90;54.80;;;;;;10415837;28;20295;-79
2021/05/22 19:18:59;;;;;;;2.50;2.30;;;16.80;54.30;;;;;;10415714;28;20233;-81
2021/05/22 19:24:00;;;;;;;2.33;2.07;;;16.70;54.90;;;;;;10417153;28;20723;-80
2021/05/22 19:29:03;;;;;;;1.40;1.30;;;16.70;56.20;;;;;;10415803;28;20285;-79
2021/05/22 19:34:05;;;;;;;1.73;1.50;;;16.60;56.50;;;;;;10414702;28;20243;-78
2021/05/22 19:39:08;;;;;;;2.13;1.20;;;16.50;57.30;;;;;;10398228;28;20233;-79
2021/05/22 19:44:11;;;;;;;1.70;1.50;;;16.40;55.50;;;;;;10413177;28;20186;-79
2021/05/22 19:49:12;;;;;;;2.03;1.50;;;16.40;55.20;;;;;;10412740;28;20253;-79
2021/05/22 19:54:15;;;;;;;3.17;2.30;;;16.30;56.70;;;;;;10413801;28;20592;-79
2021/05/22 19:59:18;;;;;;;1.97;1.50;;;16.20;56.80;;;;;;10411480;28;20735;-81
2021/05/22 20:04:19;;;;;;;1.90;1.57;;;16.10;56.80;;;;;;10412391;28;20232;-80
2021/05/22 20:09:23;;;;;;;1.87;1.40;;;16.10;57.60;;;;;;10398862;28;20229;-79
2021/05/22 20:14:25;;;;;;;4.30;3.90;;;16.10;57.10;;;;;;10416591;28;20225;-80
2021/05/22 20:19:30;;;;;;;2.57;2.37;;;16.00;57.40;;;;;;10413012;28;20324;-81
2021/05/22 20:24:31;;;;;;;2.90;2.43;;;15.90;57.80;;;;;;10395161;28;20198;-80
2021/05/22 20:29:34;;;;;;;2.53;2.33;;;15.90;58.60;;;;;;10412849;28;20693;-79
2021/05/22 20:34:36;;;;;;;2.20;2.00;;;15.70;58.90;;;;;;10413367;28;20260;-78
2021/05/22 20:39:38;;;;;;;2.40;1.67;;;15.70;60.70;;;;;;10415295;28;20334;-79
2021/05/22 20:44:41;;;;;;;2.30;2.10;;;15.60;59.90;;;;;;10421434;28;20202;-79
2021/05/22 20:49:45;;;;;;;2.63;2.43;;;15.60;59.90;;;;;;10430131;28;20226;-78
2021/05/22 20:54:47;;;;;;;2.57;2.37;;;15.50;60.20;;;;;;10417157;28;20232;-78
2021/05/22 20:59:49;;;;;;;3.53;2.20;;;15.50;60.80;;;;;;10420489;28;20728;-79
2021/05/22 21:04:51;;;;;;;2.80;2.00;;;15.40;61.80;;;;;;10421493;28;20570;-79
2021/05/22 21:09:53;;;;;;;3.17;2.50;;;15.40;62.80;;;;;;10419112;28;20230;-79
2021/05/22 21:14:56;;;;;;;4.73;3.40;;;15.40;61.90;;;;;;10421265;28;20701;-79
2021/05/22 21:19:58;;;;;;;3.80;2.97;;;15.50;60.80;;;;;;10420518;28;20217;-79
2021/05/22 21:24:59;;;;;;;3.10;2.50;;;15.50;60.80;;;;;;10403145;28;20201;-78
2021/05/22 21:30:03;;;;;;;1.90;1.80;;;15.50;62.50;;;;;;10417227;28;20351;-78
2021/05/22 21:35:05;;;;;;;4.03;1.50;;;15.50;61.80;;;;;;10419088;28;20224;-80
2021/05/22 21:40:09;;;;;;;3.20;1.87;;;15.50;62.80;;;;;;10415695;28;20709;-80
2021/05/22 21:45:13;;;;;;;1.60;1.50;;;15.50;61.00;;;;;;10401222;28;20597;-79
2021/05/22 21:50:19;;;;;;;1.77;1.67;;;15.50;62.00;;;;;;10419338;28;20584;-79
2021/05/22 21:55:23;;;;;;;1.90;1.80;;;15.50;62.90;;;;;;10419065;28;20229;-79
2021/05/22 22:00:34;;;;;;;1.70;1.60;;;15.50;61.90;;;;;;10380223;28;20241;-79
2021/05/22 22:05:36;;;;;;;2.70;1.37;;;15.60;60.70;;;;;;10397139;28;20214;-79
2021/05/22 22:10:37;;;;;;;1.47;1.37;;;15.60;61.20;;;;;;10418092;28;20241;-78
2021/05/22 22:15:40;;;;;;;1.40;1.30;;;15.50;61.90;;;;;;10409588;28;20724;-78
2021/05/22 22:20:44;;;;;;;2.70;1.60;;;15.40;62.40;;;;;;10368876;28;20316;-79
2021/05/22 22:25:47;;;;;;;2.00;1.80;;;15.40;62.20;;;;;;10398305;28;20211;-78
2021/05/22 22:30:50;;;;;;;1.30;1.20;;;15.30;62.80;;;;;;10427462;28;20222;-79
2021/05/22 22:35:54;;;;;;;1.30;1.20;;;15.30;64.30;;;;;;10381050;28;20367;-79
2021/05/22 22:40:56;;;;;;;2.13;1.40;;;15.30;64.20;;;;;;10417474;28;20773;-79
2021/05/22 22:46:02;;;;;;;2.03;1.80;;;15.20;63.70;;;;;;10402647;28;20401;-79
2021/05/22 22:51:04;;;;;;;1.30;1.20;;;15.20;64.00;;;;;;10416929;28;20294;-79
2021/05/22 22:56:09;;;;;;;1.33;1.23;;;15.10;64.40;;;;;;10431664;28;20229;-78
2021/05/22 23:01:15;;;;;;;1.30;1.20;;;15.00;65.00;;;;;;10415027;28;20694;-79
2021/05/22 23:06:17;;;;;;;1.37;1.27;;;15.00;65.20;;;;;;10414681;28;20217;-79
2021/05/22 23:11:19;;;;;;;1.40;1.30;;;15.00;66.10;;;;;;10415641;28;20218;-78
2021/05/22 23:16:21;;;;;;;1.33;0.90;;;15.00;66.00;;;;;;10414399;28;20316;-79
2021/05/22 23:21:23;;;;;;;1.20;1.20;;;15.00;66.60;;;;;;10415001;28;20222;-80
2021/05/22 23:26:25;;;;;;;1.47;1.37;;;15.00;65.40;;;;;;10401046;28;20198;-80
2021/05/22 23:31:27;;;;;;;1.30;1.20;;;15.00;65.70;;;;;;10400086;28;20296;-80
2021/05/22 23:36:32;;;;;;;12.27;11.07;;;15.00;66.10;;;;;;10397104;28;20226;-80
2021/05/22 23:41:34;;;;;;;3.07;2.77;;;14.90;67.70;;;;;;10408100;28;20612;-79
2021/05/22 23:46:36;;;;;;;4.10;1.30;;;14.90;66.50;;;;;;10397593;28;20205;-78
2021/05/22 23:51:38;;;;;;;1.80;1.20;;;14.90;66.60;;;;;;10415674;28;20632;-79
2021/05/22 23:56:39;;;;;;;1.50;1.40;;;15.00;66.30;;;;;;10415684;28;20282;-78
